Time;durP1;ratioP1;P1;durP2;ratioP2;P2;SDS_P1;SDS_P2;PMS_P1;PMS_P2;Temp;Humidity;BMP_temperature;BMP_pressure;BME280_temperature;BME280_humidity;BME280_pressure;Samples;Min_cycle;Max_cycle;Signal;HPM_P1;HPM_P2
2023/06/06 00:01:05;;;;;;;7.20;6.50;;;16.40;99.90;;;;;;4991477;28;20176;-67
2023/06/06 00:03:31;;;;;;;7.50;6.80;;;16.30;99.90;;;;;;4991794;28;20223;-67
2023/06/06 00:05:59;;;;;;;8.67;8.07;;;16.30;99.90;;;;;;4991779;28;20683;-67
2023/06/06 00:08:28;;;;;;;8.10;7.33;;;16.30;99.90;;;;;;4991626;28;20169;-67
2023/06/06 00:10:56;;;;;;;7.27;6.67;;;16.30;99.90;;;;;;4990822;28;20169;-67
2023/06/06 00:13:22;;;;;;;9.67;6.80;;;16.20;99.90;;;;;;4991017;28;20207;-67
2023/06/06 00:15:47;;;;;;;7.57;6.97;;;16.20;99.90;;;;;;4991339;28;20275;-68
2023/06/06 00:18:13;;;;;;;7.57;6.70;;;16.20;99.90;;;;;;4991477;28;20683;-67
2023/06/06 00:20:39;;;;;;;11.03;8.23;;;16.20;99.90;;;;;;4991534;28;20168;-67
2023/06/06 00:23:07;;;;;;;7.70;7.10;;;16.10;99.90;;;;;;4991690;28;20191;-68
2023/06/06 00:25:33;;;;;;;8.27;7.57;;;16.10;99.90;;;;;;4991147;28;20185;-67
2023/06/06 00:27:58;;;;;;;8.90;8.03;;;16.10;99.90;;;;;;4991552;28;20187;-67
2023/06/06 00:30:24;;;;;;;8.30;7.47;;;16.00;99.90;;;;;;4991095;28;20580;-67
2023/06/06 00:32:49;;;;;;;7.67;6.97;;;16.00;99.90;;;;;;4991669;28;20260;-67
2023/06/06 00:35:15;;;;;;;7.20;6.50;;;16.00;99.90;;;;;;4991674;28;20188;-67
2023/06/06 00:37:40;;;;;;;9.20;6.90;;;16.00;99.90;;;;;;4989894;28;20209;-67
2023/06/06 00:40:07;;;;;;;8.23;7.43;;;16.00;99.90;;;;;;4990931;28;20515;-68
2023/06/06 00:42:32;;;;;;;10.63;7.00;;;15.90;99.90;;;;;;4993061;28;20213;-67
2023/06/06 00:44:58;;;;;;;9.03;8.03;;;15.90;99.90;;;;;;4994917;28;20253;-67
2023/06/06 00:47:24;;;;;;;9.90;9.10;;;15.80;99.90;;;;;;4994935;28;20215;-68
2023/06/06 00:49:51;;;;;;;8.67;7.97;;;15.80;99.90;;;;;;4994541;28;20168;-67
2023/06/06 00:52:17;;;;;;;9.63;6.87;;;15.70;99.90;;;;;;4995221;28;20181;-67
2023/06/06 00:54:43;;;;;;;10.97;7.30;;;15.70;99.90;;;;;;4995135;28;20220;-67
2023/06/06 00:57:09;;;;;;;8.60;7.90;;;15.70;99.90;;;;;;4994461;28;20208;-67
2023/06/06 00:59:37;;;;;;;9.40;8.50;;;15.60;99.90;;;;;;4994650;28;20223;-67
2023/06/06 01:02:09;;;;;;;9.50;8.50;;;15.60;99.90;;;;;;4994689;28;20169;-67
2023/06/06 01:04:40;;;;;;;9.40;8.60;;;15.60;99.90;;;;;;4995076;28;20176;-67
2023/06/06 01:07:07;;;;;;;9.57;8.30;;;15.50;99.90;;;;;;4994621;28;20223;-67
2023/06/06 01:09:35;;;;;;;10.10;7.83;;;15.50;99.90;;;;;;4994240;28;20595;-67
2023/06/06 01:12:21;;;;;;;9.13;8.20;;;15.50;99.90;;;;;;4994663;28;20227;-67
2023/06/06 01:15:03;;;;;;;9.47;8.57;;;15.40;99.90;;;;;;4993565;28;20248;-67
2023/06/06 01:17:33;;;;;;;8.07;7.27;;;15.40;99.90;;;;;;4994156;28;20208;-67
2023/06/06 01:20:00;;;;;;;8.23;7.53;;;15.30;99.90;;;;;;4994280;28;20169;-67
2023/06/06 01:22:28;;;;;;;7.93;7.30;;;15.20;99.90;;;;;;4994650;28;20165;-67
2023/06/06 01:24:55;;;;;;;8.73;8.00;;;15.10;99.90;;;;;;4994427;28;20180;-67
2023/06/06 01:27:21;;;;;;;8.73;7.87;;;15.10;99.90;;;;;;4994898;28;20213;-67
2023/06/06 01:29:48;;;;;;;10.67;9.17;;;15.00;99.90;;;;;;4994276;28;20180;-67
2023/06/06 01:32:35;;;;;;;9.67;8.77;;;15.00;99.90;;;;;;4994414;28;20264;-67
2023/06/06 01:35:10;;;;;;;9.63;8.30;;;15.00;99.90;;;;;;4993988;28;20569;-67
2023/06/06 01:37:52;;;;;;;9.43;8.40;;;14.90;99.90;;;;;;4993344;28;20204;-67
2023/06/06 01:40:19;;;;;;;9.10;8.23;;;14.80;99.90;;;;;;4993828;28;20204;-67
2023/06/06 01:42:47;;;;;;;11.43;8.00;;;14.80;99.90;;;;;;4994133;28;20252;-67
2023/06/06 01:45:16;;;;;;;9.67;8.80;;;14.80;99.90;;;;;;4994466;28;20264;-67
2023/06/06 01:47:43;;;;;;;9.77;8.77;;;14.80;99.90;;;;;;4993776;28;20679;-67
2023/06/06 01:50:09;;;;;;;10.33;8.13;;;14.80;99.90;;;;;;4993513;28;20204;-67
2023/06/06 01:52:39;;;;;;;8.50;7.80;;;14.80;99.90;;;;;;4993871;28;20690;-67
2023/06/06 01:55:05;;;;;;;9.57;8.30;;;14.70;99.90;;;;;;4992964;28;20169;-67
2023/06/06 01:57:32;;;;;;;10.90;8.40;;;14.70;99.90;;;;;;4993546;28;20216;-67
2023/06/06 01:59:58;;;;;;;9.20;8.40;;;14.70;99.90;;;;;;4992160;28;20343;-67
2023/06/06 02:02:24;;;;;;;9.93;8.47;;;14.70;99.90;;;;;;4992652;28;20216;-67
2023/06/06 02:04:50;;;;;;;9.47;8.57;;;14.60;99.90;;;;;;4993711;28;20537;-67
2023/06/06 02:07:16;;;;;;;12.10;9.70;;;14.60;99.90;;;;;;4993362;28;20498;-67
2023/06/06 02:09:43;;;;;;;9.93;8.93;;;14.50;99.90;;;;;;4993212;28;20262;-67
2023/06/06 02:12:09;;;;;;;12.17;8.90;;;14.50;99.90;;;;;;4993478;28;20188;-67
2023/06/06 02:14:34;;;;;;;11.53;8.70;;;14.50;99.90;;;;;;4993263;28;20172;-67
2023/06/06 02:17:00;;;;;;;9.90;8.90;;;14.50;99.90;;;;;;4993185;28;20292;-67
2023/06/06 02:19:26;;;;;;;10.77;9.20;;;14.40;99.90;;;;;;4993351;28;20165;-67
2023/06/06 02:21:52;;;;;;;11.90;9.83;;;14.40;99.90;;;;;;4993738;28;20195;-73
2023/06/06 02:24:18;;;;;;;14.67;10.30;;;14.30;99.90;;;;;;4992976;28;20271;-74
2023/06/06 02:26:44;;;;;;;14.33;9.50;;;14.30;99.90;;;;;;4993307;28;20370;-72
2023/06/06 02:29:10;;;;;;;10.87;9.80;;;14.30;99.90;;;;;;4994205;28;20181;-76
2023/06/06 02:31:36;;;;;;;10.40;9.40;;;14.20;99.90;;;;;;4994403;28;20256;-73
2023/06/06 02:34:02;;;;;;;13.23;9.83;;;14.20;99.90;;;;;;4994188;28;20264;-70
2023/06/06 02:36:29;;;;;;;11.37;10.07;;;14.20;99.90;;;;;;4994051;28;20205;-72
2023/06/06 02:38:56;;;;;;;11.07;9.40;;;14.10;99.90;;;;;;4994378;28;20251;-72
2023/06/06 02:41:23;;;;;;;10.17;9.03;;;14.10;99.90;;;;;;4994296;28;20552;-74
2023/06/06 02:43:48;;;;;;;10.80;9.57;;;14.10;99.90;;;;;;4994196;28;20717;-70
2023/06/06 02:46:14;;;;;;;10.33;9.27;;;14.10;99.90;;;;;;4992819;28;20201;-73
2023/06/06 02:48:40;;;;;;;10.90;9.77;;;14.00;99.90;;;;;;4994219;28;20173;-69
2023/06/06 02:51:06;;;;;;;11.57;9.30;;;14.00;99.90;;;;;;4993915;28;20169;-72
2023/06/06 02:53:32;;;;;;;11.57;9.70;;;14.00;99.90;;;;;;4994279;28;20168;-71
2023/06/06 02:55:58;;;;;;;11.20;10.03;;;14.00;99.90;;;;;;4993786;28;20201;-70
2023/06/06 02:58:24;;;;;;;13.17;10.13;;;14.00;99.90;;;;;;4993687;28;20208;-71
2023/06/06 03:00:50;;;;;;;11.83;10.60;;;13.90;99.90;;;;;;4993507;28;20173;-71
2023/06/06 03:03:15;;;;;;;13.03;9.90;;;13.90;99.90;;;;;;4992699;28;20184;-71
2023/06/06 03:05:42;;;;;;;11.93;10.37;;;13.90;99.90;;;;;;4993622;28;20279;-70
2023/06/06 03:08:07;;;;;;;10.90;9.90;;;13.80;99.90;;;;;;4993496;28;20188;-72
2023/06/06 03:10:33;;;;;;;12.97;10.70;;;13.80;99.90;;;;;;4993708;28;20176;-72
2023/06/06 03:12:59;;;;;;;10.70;9.67;;;13.80;99.90;;;;;;4993730;28;20717;-71
2023/06/06 03:15:25;;;;;;;11.90;10.00;;;13.80;99.90;;;;;;4993868;28;20255;-71
2023/06/06 03:17:50;;;;;;;12.20;10.17;;;13.70;99.90;;;;;;4992093;28;20208;-73
2023/06/06 03:20:16;;;;;;;13.73;9.70;;;13.80;99.90;;;;;;4992055;28;20661;-70
2023/06/06 03:22:42;;;;;;;14.90;9.83;;;13.80;99.90;;;;;;4993756;28;20203;-74
2023/06/06 03:25:08;;;;;;;13.93;10.63;;;13.70;99.90;;;;;;4992216;28;20239;-69
2023/06/06 03:27:33;;;;;;;13.93;9.97;;;13.70;99.90;;;;;;4993280;28;20252;-70
2023/06/06 03:30:02;;;;;;;13.07;10.47;;;13.70;99.90;;;;;;4993135;28;20176;-72
2023/06/06 03:32:27;;;;;;;18.03;10.67;;;13.80;99.90;;;;;;4993395;28;20176;-72
2023/06/06 03:34:53;;;;;;;11.60;10.40;;;13.80;99.90;;;;;;4993573;28;20250;-71
2023/06/06 03:37:19;;;;;;;10.47;9.37;;;13.80;99.90;;;;;;4993194;28;20635;-70
2023/06/06 03:39:45;;;;;;;14.17;10.10;;;13.80;99.90;;;;;;4992997;28;20553;-69
2023/06/06 03:42:10;;;;;;;11.87;10.47;;;13.70;99.90;;;;;;4993555;28;20177;-69
2023/06/06 03:44:36;;;;;;;11.03;9.80;;;13.70;99.90;;;;;;4990805;28;20555;-66
2023/06/06 03:47:01;;;;;;;11.40;10.27;;;13.70;99.90;;;;;;4991987;28;20212;-66
2023/06/06 03:49:28;;;;;;;11.60;10.40;;;13.80;99.90;;;;;;4991849;28;20259;-66
2023/06/06 03:51:53;;;;;;;12.03;9.90;;;13.70;99.90;;;;;;4990530;28;20267;-67
2023/06/06 03:54:19;;;;;;;13.27;10.40;;;13.80;99.90;;;;;;4991892;28;20320;-67
2023/06/06 03:56:45;;;;;;;14.70;11.07;;;13.80;99.90;;;;;;4991503;28;20219;-67
2023/06/06 03:59:11;;;;;;;11.90;10.70;;;13.80;99.90;;;;;;4991618;28;20595;-66
2023/06/06 04:01:37;;;;;;;15.90;11.80;;;13.80;99.90;;;;;;4991772;28;20674;-66
2023/06/06 04:04:02;;;;;;;12.47;11.17;;;13.90;99.90;;;;;;4990496;28;20185;-66
2023/06/06 04:06:28;;;;;;;13.77;10.77;;;13.90;99.90;;;;;;4991779;28;20690;-66
2023/06/06 04:08:54;;;;;;;12.10;10.43;;;13.90;99.90;;;;;;4991754;28;20643;-67
2023/06/06 04:11:19;;;;;;;17.50;10.53;;;13.90;99.90;;;;;;4991385;28;20287;-66
2023/06/06 04:13:45;;;;;;;12.43;10.97;;;14.00;99.90;;;;;;4991726;28;20185;-67
2023/06/06 04:16:10;;;;;;;15.83;11.77;;;14.00;99.90;;;;;;4991573;28;20204;-66
2023/06/06 04:18:36;;;;;;;12.17;10.83;;;14.00;99.90;;;;;;4993698;28;20188;-66
2023/06/06 04:21:01;;;;;;;11.90;10.67;;;14.00;99.90;;;;;;4995239;28;20189;-66
2023/06/06 04:23:27;;;;;;;14.80;11.60;;;14.10;99.90;;;;;;4995493;28;20185;-67
2023/06/06 04:25:52;;;;;;;13.53;10.27;;;14.10;99.90;;;;;;4995796;28;20216;-66
2023/06/06 04:28:19;;;;;;;12.77;10.53;;;14.20;99.90;;;;;;4995439;28;20260;-67
2023/06/06 04:30:52;;;;;;;11.83;10.40;;;14.20;99.90;;;;;;4995244;28;20272;-67
2023/06/06 04:33:18;;;;;;;13.87;10.40;;;14.20;99.90;;;;;;4995579;28;20211;-66
2023/06/06 04:35:44;;;;;;;12.23;9.97;;;14.30;99.90;;;;;;4995257;28;20220;-66
2023/06/06 04:38:11;;;;;;;11.57;10.07;;;14.40;99.90;;;;;;4995069;28;20243;-67
2023/06/06 04:40:38;;;;;;;13.57;9.37;;;14.60;99.90;;;;;;4993938;28;20176;-67
2023/06/06 04:43:03;;;;;;;12.00;10.30;;;14.80;99.90;;;;;;4995315;28;20173;-66
2023/06/06 04:45:29;;;;;;;12.83;11.20;;;14.90;99.90;;;;;;4995061;28;20177;-67
2023/06/06 04:47:59;;;;;;;12.03;10.87;;;15.00;99.90;;;;;;4994689;28;20184;-67
2023/06/06 04:50:24;;;;;;;13.30;10.10;;;15.10;99.90;;;;;;4993816;28;20169;-67
2023/06/06 04:52:50;;;;;;;14.47;11.80;;;15.30;99.90;;;;;;4994770;28;20184;-67
2023/06/06 04:55:18;;;;;;;14.23;12.87;;;15.50;99.90;;;;;;4995379;28;20323;-67
2023/06/06 04:57:44;;;;;;;12.83;9.67;;;15.60;99.90;;;;;;4995037;28;20209;-67
2023/06/06 05:00:12;;;;;;;13.77;10.80;;;15.70;99.90;;;;;;4994661;28;20231;-68
2023/06/06 05:02:38;;;;;;;10.50;9.40;;;15.90;99.90;;;;;;4994993;28;20281;-67
2023/06/06 05:05:04;;;;;;;10.40;9.30;;;15.90;99.90;;;;;;4994961;28;20267;-67
2023/06/06 05:07:29;;;;;;;11.20;10.03;;;16.00;99.90;;;;;;4994634;28;20200;-67
2023/06/06 05:09:55;;;;;;;12.60;9.87;;;16.10;99.90;;;;;;4994384;28;20184;-67
2023/06/06 05:12:22;;;;;;;13.60;8.80;;;16.20;99.90;;;;;;4994799;28;20725;-67
2023/06/06 05:14:48;;;;;;;10.97;9.97;;;16.20;99.90;;;;;;4994692;28;20673;-67
2023/06/06 05:17:17;;;;;;;11.93;10.77;;;16.30;99.90;;;;;;4994156;28;20208;-67
2023/06/06 05:19:44;;;;;;;10.70;9.70;;;16.50;99.90;;;;;;4994137;28;20188;-67
2023/06/06 05:22:09;;;;;;;11.03;9.17;;;16.60;99.90;;;;;;4994463;28;20262;-67
2023/06/06 05:24:35;;;;;;;16.33;9.27;;;16.70;99.90;;;;;;4994865;28;20213;-67
2023/06/06 05:27:00;;;;;;;11.40;9.50;;;16.60;99.90;;;;;;4995016;28;20467;-67
2023/06/06 05:29:26;;;;;;;11.23;10.03;;;16.70;99.90;;;;;;4993103;28;20180;-67
2023/06/06 05:31:52;;;;;;;11.70;9.80;;;16.70;99.90;;;;;;4994052;28;20185;-67
2023/06/06 05:34:18;;;;;;;11.13;10.03;;;16.70;99.90;;;;;;4994478;28;20219;-67
2023/06/06 05:36:43;;;;;;;12.50;11.30;;;16.80;99.90;;;;;;4992952;28;20315;-67
2023/06/06 05:39:10;;;;;;;16.07;13.37;;;17.00;99.90;;;;;;4993867;28;20219;-67
2023/06/06 05:41:36;;;;;;;12.90;10.63;;;17.00;99.90;;;;;;4994230;28;20204;-67
2023/06/06 05:44:02;;;;;;;12.67;10.40;;;17.10;99.90;;;;;;4994030;28;20665;-67
2023/06/06 05:46:27;;;;;;;12.80;10.63;;;17.20;99.90;;;;;;4994107;28;20205;-67
2023/06/06 05:48:53;;;;;;;14.03;12.47;;;17.30;99.90;;;;;;4994145;28;20204;-67
2023/06/06 05:51:18;;;;;;;11.97;10.37;;;17.50;99.90;;;;;;4993755;28;20177;-67
2023/06/06 05:53:44;;;;;;;10.10;8.73;;;17.60;99.90;;;;;;4994020;28;20661;-67
2023/06/06 05:56:13;;;;;;;9.90;8.88;;;17.80;99.90;;;;;;4993701;28;20208;-67
2023/06/06 05:58:40;;;;;;;12.73;9.70;;;18.20;99.90;;;;;;4987155;28;20173;-67
2023/06/06 06:01:06;;;;;;;10.98;9.40;;;18.60;99.90;;;;;;4986479;28;20303;-67
2023/06/06 06:03:35;;;;;;;12.15;9.10;;;18.80;99.90;;;;;;4992867;28;20722;-67
2023/06/06 06:06:05;;;;;;;15.50;10.20;;;19.10;99.90;;;;;;4990617;28;20229;-67
2023/06/06 06:08:34;;;;;;;14.32;11.65;;;19.50;99.90;;;;;;4991799;28;20181;-67
2023/06/06 06:10:59;;;;;;;12.00;9.75;;;19.80;99.90;;;;;;4990451;28;20186;-67
2023/06/06 06:13:25;;;;;;;12.30;10.45;;;20.10;99.90;;;;;;4992372;28;20177;-67
2023/06/06 06:15:51;;;;;;;10.20;8.65;;;20.30;99.90;;;;;;4993914;28;20205;-67
2023/06/06 06:18:16;;;;;;;11.10;9.85;;;20.30;99.90;;;;;;4992401;28;20208;-68
2023/06/06 06:20:42;;;;;;;11.07;9.30;;;20.40;99.90;;;;;;4991546;28;20184;-67
2023/06/06 06:23:07;;;;;;;15.77;10.20;;;20.50;99.90;;;;;;4992937;28;20180;-67
2023/06/06 06:25:35;;;;;;;10.57;8.93;;;20.50;99.90;;;;;;4992896;28;20192;-67
2023/06/06 06:28:01;;;;;;;10.13;8.30;;;20.80;99.90;;;;;;4991090;28;20181;-67
2023/06/06 06:30:27;;;;;;;13.48;10.10;;;21.10;99.90;;;;;;4992913;28;20187;-67
2023/06/06 06:32:53;;;;;;;10.38;8.75;;;21.40;99.90;;;;;;4993375;28;20173;-67
2023/06/06 06:35:18;;;;;;;13.98;9.27;;;21.90;99.90;;;;;;4981861;28;20195;-67
2023/06/06 06:37:44;;;;;;;10.55;7.95;;;22.20;99.90;;;;;;4973072;28;20244;-67
2023/06/06 06:40:10;;;;;;;9.73;8.52;;;22.50;99.90;;;;;;4972490;28;20217;-67
2023/06/06 06:42:41;;;;;;;10.18;8.55;;;22.30;99.90;;;;;;4973543;28;20169;-68
2023/06/06 06:45:10;;;;;;;11.02;8.55;;;22.40;99.90;;;;;;4973357;28;20170;-67
2023/06/06 06:47:36;;;;;;;10.30;8.88;;;22.70;99.90;;;;;;4984439;28;20200;-67
2023/06/06 06:50:02;;;;;;;13.00;10.77;;;22.80;99.90;;;;;;4992468;28;20177;-67
2023/06/06 06:52:28;;;;;;;13.20;9.57;;;23.10;99.90;;;;;;4992643;28;20189;-67
2023/06/06 06:54:58;;;;;;;11.45;8.02;;;23.50;99.90;;;;;;4991917;28;20231;-67
2023/06/06 06:57:28;;;;;;;11.85;9.50;;;24.00;99.90;;;;;;4992558;28;20227;-67
2023/06/06 06:59:55;;;;;;;12.15;8.90;;;24.40;99.90;;;;;;4991591;28;20185;-67
2023/06/06 07:02:23;;;;;;;10.88;8.32;;;24.50;99.90;;;;;;4991363;28;20543;-67
2023/06/06 07:04:49;;;;;;;8.95;7.97;;;24.60;99.90;;;;;;4992488;28;20543;-67
2023/06/06 07:07:15;;;;;;;10.02;9.10;;;24.80;99.90;;;;;;4992315;28;20200;-67
2023/06/06 07:09:43;;;;;;;11.38;9.00;;;25.10;99.90;;;;;;4991200;28;20180;-67
2023/06/06 07:12:10;;;;;;;11.88;8.88;;;25.10;99.90;;;;;;4991740;28;20177;-67
2023/06/06 07:14:36;;;;;;;12.43;8.90;;;25.10;99.90;;;;;;4992009;28;20736;-68
2023/06/06 07:17:03;;;;;;;11.48;9.02;;;25.00;99.90;;;;;;4991973;28;20220;-67
2023/06/06 07:19:28;;;;;;;9.82;8.90;;;24.90;99.90;;;;;;4991907;28;20177;-67
2023/06/06 07:21:56;;;;;;;11.32;7.97;;;24.70;99.90;;;;;;4990760;28;20184;-67
2023/06/06 07:24:24;;;;;;;11.73;8.40;;;25.20;99.90;;;;;;4992232;28;20173;-67
2023/06/06 07:26:53;;;;;;;9.50;8.60;;;25.20;99.90;;;;;;4992193;28;20569;-67
2023/06/06 07:29:21;;;;;;;10.35;8.88;;;25.60;99.90;;;;;;4991763;28;20254;-67
2023/06/06 07:31:47;;;;;;;9.85;8.85;;;25.80;99.90;;;;;;4990425;28;20581;-67
2023/06/06 07:34:12;;;;;;;10.55;8.80;;;26.10;99.90;;;;;;4992009;28;20571;-68
2023/06/06 07:36:38;;;;;;;9.77;8.48;;;26.20;99.90;;;;;;4991545;28;20545;-67
2023/06/06 07:39:04;;;;;;;10.45;7.97;;;26.30;99.90;;;;;;4991783;28;20238;-67
2023/06/06 07:41:30;;;;;;;8.90;8.07;;;26.30;99.90;;;;;;4992064;28;20165;-67
2023/06/06 07:43:56;;;;;;;11.35;8.23;;;26.00;99.90;;;;;;4991017;28;20188;-67
2023/06/06 07:46:22;;;;;;;11.68;8.80;;;26.00;99.90;;;;;;4991664;28;20709;-67
2023/06/06 07:48:48;;;;;;;10.02;7.82;;;26.00;99.90;;;;;;4991469;28;20180;-67
2023/06/06 07:51:14;;;;;;;10.00;8.98;;;25.90;99.90;;;;;;4990841;28;20188;-67
2023/06/06 07:53:39;;;;;;;10.30;7.90;;;25.90;99.90;;;;;;4991888;28;20176;-67
2023/06/06 07:56:06;;;;;;;11.25;8.63;;;26.20;99.90;;;;;;4991896;28;20271;-67
2023/06/06 07:58:41;;;;;;;9.65;8.27;;;26.70;99.90;;;;;;4991764;28;20203;-67
2023/06/06 08:01:10;;;;;;;10.52;9.40;;;27.30;99.90;;;;;;4991798;28;20260;-67
2023/06/06 08:03:36;;;;;;;9.85;8.80;;;27.50;99.90;;;;;;4992107;28;20261;-68
2023/06/06 08:06:02;;;;;;;9.95;8.95;;;27.60;99.90;;;;;;4990834;28;20200;-67
2023/06/06 08:08:28;;;;;;;10.77;8.55;;;27.50;99.90;;;;;;4991871;28;20264;-66
2023/06/06 08:10:53;;;;;;;9.75;7.90;;;27.90;99.90;;;;;;4991553;28;20531;-67
2023/06/06 08:13:20;;;;;;;11.85;8.55;;;28.00;99.90;;;;;;4991716;28;20176;-67
2023/06/06 08:15:45;;;;;;;9.30;8.27;;;28.30;99.90;;;;;;4990584;28;20280;-67
2023/06/06 08:18:13;;;;;;;10.63;8.27;;;28.50;99.90;;;;;;4991526;28;21093;-67
2023/06/06 08:20:39;;;;;;;10.15;8.20;;;28.50;99.90;;;;;;4991515;28;20215;-67
2023/06/06 08:23:04;;;;;;;13.70;8.45;;;28.30;99.90;;;;;;4990729;28;20204;-67
2023/06/06 08:25:30;;;;;;;8.80;7.90;;;27.90;99.90;;;;;;4991683;28;20256;-67
2023/06/06 08:27:58;;;;;;;8.05;7.25;;;27.90;99.90;;;;;;4990070;28;20599;-67
2023/06/06 08:30:23;;;;;;;10.73;8.05;;;28.10;99.90;;;;;;4991425;28;20181;-68
2023/06/06 08:32:50;;;;;;;9.48;8.25;;;27.70;99.90;;;;;;4991495;28;20176;-68
2023/06/06 08:35:16;;;;;;;8.57;7.13;;;27.70;99.90;;;;;;4991579;28;20181;-67
2023/06/06 08:37:42;;;;;;;9.43;8.52;;;28.20;99.90;;;;;;4991660;28;20201;-67
2023/06/06 08:40:09;;;;;;;12.60;7.75;;;28.40;99.90;;;;;;4991204;28;20654;-67
2023/06/06 08:42:42;;;;;;;8.85;7.43;;;28.40;99.90;;;;;;4990487;28;20194;-67
2023/06/06 08:45:08;;;;;;;8.77;7.97;;;28.70;99.90;;;;;;4991577;28;20196;-68
2023/06/06 08:47:35;;;;;;;9.77;8.77;;;28.80;99.90;;;;;;4991373;28;20197;-67
2023/06/06 08:50:04;;;;;;;9.30;8.27;;;28.80;99.90;;;;;;4990887;28;20173;-67
2023/06/06 08:52:33;;;;;;;9.05;7.63;;;28.70;99.90;;;;;;4991626;28;20176;-67
2023/06/06 08:54:58;;;;;;;11.15;8.00;;;28.90;99.90;;;;;;4991399;28;20252;-67
2023/06/06 08:57:25;;;;;;;8.48;7.63;;;29.10;99.90;;;;;;4991283;28;20328;-66
2023/06/06 08:59:51;;;;;;;11.02;7.55;;;29.00;99.90;;;;;;4990998;28;20531;-67
2023/06/06 09:02:17;;;;;;;8.98;7.18;;;29.20;99.90;;;;;;4990972;28;20189;-68
2023/06/06 09:04:44;;;;;;;9.63;7.53;;;29.30;99.90;;;;;;4993750;28;20252;-67
2023/06/06 09:07:12;;;;;;;7.10;6.40;;;29.70;99.90;;;;;;4994770;28;20201;-67
2023/06/06 09:09:43;;;;;;;9.10;7.78;;;30.00;99.90;;;;;;4993287;28;20545;-67
2023/06/06 09:12:09;;;;;;;11.32;7.22;;;29.90;99.90;;;;;;4994595;28;20176;-67
2023/06/06 09:14:35;;;;;;;9.23;6.50;;;29.70;99.90;;;;;;4994837;28;20722;-68
2023/06/06 09:17:01;;;;;;;7.95;7.13;;;29.80;99.90;;;;;;4994119;28;20213;-67
2023/06/06 09:19:27;;;;;;;7.13;5.85;;;29.70;99.90;;;;;;4994636;28;20179;-67
2023/06/06 09:21:53;;;;;;;11.80;6.60;;;29.40;99.90;;;;;;4994361;28;20352;-67
2023/06/06 09:24:19;;;;;;;11.07;7.10;;;29.40;99.90;;;;;;4994387;28;20180;-68
2023/06/06 09:26:45;;;;;;;7.55;6.70;;;29.50;99.90;;;;;;4994415;28;20228;-67
2023/06/06 09:29:13;;;;;;;8.25;7.05;;;29.50;99.90;;;;;;4993982;28;20172;-67
2023/06/06 09:31:41;;;;;;;8.77;6.55;;;29.90;99.90;;;;;;4994294;28;20272;-67
2023/06/06 09:34:09;;;;;;;9.32;6.53;;;30.10;99.90;;;;;;4994197;28;20169;-67
2023/06/06 09:36:37;;;;;;;8.00;6.60;;;30.20;99.90;;;;;;4994261;28;20188;-67
2023/06/06 09:39:05;;;;;;;7.70;6.18;;;30.20;99.90;;;;;;4994196;28;20174;-68
2023/06/06 09:41:37;;;;;;;9.98;6.43;;;30.30;99.90;;;;;;4994441;28;20585;-67
2023/06/06 09:44:04;;;;;;;10.32;6.93;;;30.20;99.90;;;;;;4993689;28;20177;-66
2023/06/06 09:46:36;;;;;;;12.15;6.55;;;30.00;99.90;;;;;;4993362;28;20561;-67
2023/06/06 09:49:01;;;;;;;9.23;6.45;;;30.10;99.90;;;;;;4994357;28;20643;-67
2023/06/06 09:51:31;;;;;;;8.63;6.50;;;29.90;99.90;;;;;;4993829;28;20180;-67
2023/06/06 09:54:00;;;;;;;10.48;6.57;;;30.10;99.90;;;;;;4994051;28;20539;-67
2023/06/06 09:56:29;;;;;;;8.55;7.10;;;30.30;99.90;;;;;;4993439;28;20196;-67
2023/06/06 09:58:55;;;;;;;8.50;6.80;;;30.50;99.90;;;;;;4993906;28;20208;-67
2023/06/06 10:01:28;;;;;;;7.15;6.28;;;30.20;99.90;;;;;;4993129;28;20184;-67
2023/06/06 10:03:56;;;;;;;9.43;6.40;;;30.30;99.90;;;;;;4993977;28;20217;-67
2023/06/06 10:06:24;;;;;;;11.38;6.68;;;30.40;99.90;;;;;;4993636;28;20270;-67
2023/06/06 10:08:53;;;;;;;9.68;6.35;;;30.40;99.90;;;;;;4993928;28;20304;-67
2023/06/06 10:11:21;;;;;;;6.55;5.85;;;30.60;99.90;;;;;;4993604;28;20173;-67
2023/06/06 10:13:49;;;;;;;9.13;6.63;;;30.70;99.90;;;;;;4993950;28;20165;-66
2023/06/06 10:16:16;;;;;;;9.93;5.97;;;30.80;99.90;;;;;;4992792;28;20658;-67
2023/06/06 10:18:46;;;;;;;8.07;5.85;;;31.20;99.90;;;;;;4993730;28;20287;-67
2023/06/06 10:21:14;;;;;;;10.60;6.07;;;31.80;99.90;;;;;;4993257;28;20200;-67
2023/06/06 10:23:40;;;;;;;8.02;5.80;;;31.90;99.90;;;;;;4993768;28;20169;-66
2023/06/06 10:26:13;;;;;;;6.85;5.30;;;31.70;99.90;;;;;;4992968;28;20271;-66
2023/06/06 10:28:50;;;;;;;8.18;6.32;;;31.90;99.90;;;;;;4993599;28;20173;-67
2023/06/06 10:31:30;;;;;;;9.07;6.53;;;32.10;98.90;;;;;;4993202;28;20272;-67
2023/06/06 10:33:58;;;;;;;6.72;5.32;;;31.70;99.40;;;;;;4993447;28;20177;-67
2023/06/06 10:36:24;;;;;;;6.50;5.60;;;31.70;98.70;;;;;;4992064;28;20200;-67
2023/06/06 10:39:20;;;;;;;5.97;5.13;;;31.50;99.00;;;;;;4993300;28;20176;-67
2023/06/06 10:41:58;;;;;;;7.05;5.90;;;31.10;99.90;;;;;;4993014;28;20188;-67
2023/06/06 10:44:37;;;;;;;6.95;5.90;;;30.80;99.50;;;;;;4993207;28;20200;-67
2023/06/06 10:47:21;;;;;;;6.63;4.85;;;30.50;99.90;;;;;;4992696;28;20204;-67
2023/06/06 10:50:11;;;;;;;8.80;6.25;;;31.20;99.90;;;;;;4992308;28;20180;-67
2023/06/06 10:52:59;;;;;;;7.22;5.95;;;30.90;99.00;;;;;;4993162;28;20173;-67
2023/06/06 10:55:25;;;;;;;8.52;5.43;;;31.00;99.90;;;;;;4972666;28;20209;-68
2023/06/06 10:58:03;;;;;;;9.95;5.85;;;31.00;99.40;;;;;;4973450;28;20291;-68
2023/06/06 11:00:32;;;;;;;6.68;5.85;;;31.00;98.40;;;;;;4972973;28;20173;-67
2023/06/06 11:03:16;;;;;;;10.05;6.00;;;31.00;98.40;;;;;;4973306;28;20193;-67
2023/06/06 11:05:59;;;;;;;9.55;6.05;;;31.30;99.90;;;;;;4973464;28;20283;-67
2023/06/06 11:08:57;;;;;;;7.10;6.40;;;31.30;99.90;;;;;;4978563;28;20260;-67
2023/06/06 11:11:30;;;;;;;8.75;5.88;;;31.40;99.90;;;;;;4992662;28;20615;-68
2023/06/06 11:14:00;;;;;;;9.70;7.00;;;31.70;99.90;;;;;;4990713;28;20227;-67
2023/06/06 11:16:32;;;;;;;10.60;6.20;;;31.40;98.30;;;;;;4992354;28;20247;-67
2023/06/06 11:19:02;;;;;;;15.65;6.40;;;31.40;99.50;;;;;;4992613;28;20651;-68
2023/06/06 11:21:29;;;;;;;10.20;6.32;;;31.00;99.20;;;;;;4992165;28;20177;-66
2023/06/06 11:23:55;;;;;;;9.80;6.60;;;31.00;99.90;;;;;;4991581;28;20709;-67
2023/06/06 11:26:22;;;;;;;9.45;6.15;;;30.90;99.30;;;;;;4992341;28;20204;-67
2023/06/06 11:28:49;;;;;;;6.40;5.68;;;31.10;98.60;;;;;;4992011;28;20169;-67
2023/06/06 11:31:19;;;;;;;6.53;5.43;;;31.20;99.90;;;;;;4979129;28;20196;-67
2023/06/06 11:33:48;;;;;;;8.00;5.57;;;31.20;98.30;;;;;;4972753;28;20220;-68
2023/06/06 11:36:14;;;;;;;9.30;5.75;;;31.30;96.40;;;;;;4975801;28;20204;-67
2023/06/06 11:38:42;;;;;;;8.57;6.45;;;31.30;98.50;;;;;;4992043;28;20564;-67
2023/06/06 11:41:09;;;;;;;7.50;5.78;;;31.40;97.60;;;;;;4991648;28;20177;-68
2023/06/06 11:43:35;;;;;;;9.02;5.05;;;31.70;97.90;;;;;;4990716;28;20184;-66
2023/06/06 11:46:06;;;;;;;8.57;5.32;;;31.40;99.00;;;;;;4992052;28;20224;-67
2023/06/06 11:48:33;;;;;;;6.57;5.43;;;31.20;97.50;;;;;;4991509;28;20180;-67
2023/06/06 11:51:12;;;;;;;6.45;4.72;;;31.20;98.30;;;;;;4990203;28;20259;-67
2023/06/06 11:53:38;;;;;;;8.18;5.97;;;31.40;97.90;;;;;;4992041;28;20647;-67
2023/06/06 11:56:05;;;;;;;5.68;5.10;;;31.20;96.30;;;;;;4991584;28;20211;-67
2023/06/06 11:58:31;;;;;;;7.78;4.78;;;31.20;94.90;;;;;;4991771;28;20205;-67
2023/06/06 12:01:04;;;;;;;7.93;4.95;;;31.10;95.50;;;;;;4991077;28;20274;-67
2023/06/06 12:03:31;;;;;;;7.40;5.80;;;31.50;93.60;;;;;;4991341;28;20550;-67
2023/06/06 12:06:00;;;;;;;5.50;5.00;;;31.60;97.10;;;;;;4990796;28;20189;-66
2023/06/06 12:08:26;;;;;;;5.68;4.97;;;31.70;89.10;;;;;;4989580;28;20501;-67
2023/06/06 12:10:52;;;;;;;6.40;5.63;;;31.30;90.70;;;;;;4988548;28;20184;-68
2023/06/06 12:13:33;;;;;;;7.32;6.72;;;31.50;90.40;;;;;;4978905;28;20272;-66
2023/06/06 12:15:59;;;;;;;5.70;5.20;;;31.40;88.10;;;;;;4967261;28;20208;-67
2023/06/06 12:18:25;;;;;;;5.47;4.78;;;31.30;92.30;;;;;;4978373;28;20777;-67
2023/06/06 12:20:51;;;;;;;7.45;4.97;;;31.70;89.40;;;;;;4986058;28;20263;-67
2023/06/06 12:23:28;;;;;;;7.90;4.50;;;32.10;90.50;;;;;;4987401;28;20173;-67
2023/06/06 12:25:57;;;;;;;5.30;4.00;;;32.50;91.90;;;;;;4991273;28;20204;-67
2023/06/06 12:28:23;;;;;;;5.25;4.72;;;32.70;87.90;;;;;;4991441;28;20169;-67
2023/06/06 12:30:51;;;;;;;6.05;4.15;;;33.00;94.60;;;;;;4991950;28;20204;-67
2023/06/06 12:33:18;;;;;;;5.10;3.50;;;33.20;89.90;;;;;;4991031;28;20187;-68
2023/06/06 12:35:45;;;;;;;4.95;4.45;;;32.90;83.50;;;;;;4990327;28;20216;-67
2023/06/06 12:38:22;;;;;;;7.70;4.28;;;32.80;81.90;;;;;;4992848;28;20674;-68
2023/06/06 12:40:57;;;;;;;3.85;3.45;;;32.90;79.70;;;;;;4995100;28;20247;-67
2023/06/06 12:43:24;;;;;;;6.13;3.90;;;33.10;84.50;;;;;;4995755;28;20176;-66